createdAt,value
2023-02-23T00:00:44.574Z,27.20
2023-02-23T00:03:14.306Z,25.60
2023-02-23T00:05:44.262Z,21.73
2023-02-23T00:08:12.546Z,22.48
2023-02-23T00:10:40.900Z,27.15
2023-02-23T00:13:11.213Z,21.92
2023-02-23T00:15:40.797Z,28.75
2023-02-23T00:18:09.527Z,24.42
2023-02-23T00:20:44.396Z,26.50
2023-02-23T00:23:15.212Z,26.70
2023-02-23T00:25:45.786Z,28.23
2023-02-23T00:28:14.486Z,27.45
2023-02-23T00:30:42.841Z,24.65
2023-02-23T00:33:11.247Z,25.40
2023-02-23T00:35:39.678Z,29.77
2023-02-23T00:38:08.113Z,29.90
2023-02-23T00:40:43.078Z,25.05
2023-02-23T00:43:11.454Z,27.10
2023-02-23T00:45:40.527Z,25.48
2023-02-23T00:48:10.941Z,31.15
2023-02-23T00:50:41.636Z,26.00
2023-02-23T00:53:11.507Z,30.73
2023-02-23T00:55:43.843Z,31.90
2023-02-23T00:58:14.103Z,30.67
2023-02-23T01:00:43.589Z,31.25
2023-02-23T01:03:12.035Z,26.58
2023-02-23T01:05:40.343Z,30.70
2023-02-23T01:08:10.382Z,29.52
2023-02-23T01:10:42.860Z,29.40
2023-02-23T01:13:13.306Z,36.65
2023-02-23T01:15:45.507Z,37.63
2023-02-23T01:18:13.833Z,37.33
2023-02-23T01:20:42.792Z,35.67
2023-02-23T01:23:12.949Z,35.60
2023-02-23T01:25:42.927Z,41.08
2023-02-23T01:28:13.621Z,38.35
2023-02-23T01:30:42.426Z,46.53
2023-02-23T01:33:12.518Z,36.30
2023-02-23T01:35:41.308Z,32.45
2023-02-23T01:38:09.809Z,33.17
2023-02-23T01:40:39.491Z,26.20
2023-02-23T01:43:18.047Z,30.15
2023-02-23T01:45:46.909Z,36.53
2023-02-23T01:48:18.838Z,29.77
2023-02-23T01:50:53.763Z,37.35
2023-02-23T01:53:23.361Z,30.63
2023-02-23T01:55:55.882Z,34.75
2023-02-23T01:58:28.184Z,29.45
2023-02-23T02:00:58.570Z,30.42
2023-02-23T02:03:30.765Z,37.15
2023-02-23T02:06:02.497Z,32.25
2023-02-23T02:08:33.037Z,36.80
2023-02-23T02:11:08.462Z,34.10
2023-02-23T02:13:38.531Z,31.92
2023-02-23T02:16:23.627Z,32.72
2023-02-23T02:19:09.031Z,27.80
2023-02-23T02:22:10.365Z,28.75
2023-02-23T02:25:11.958Z,32.25
2023-02-23T02:28:15.303Z,29.42
2023-02-23T02:31:40.465Z,28.10
2023-02-23T02:34:32.957Z,22.88
2023-02-23T02:37:44.149Z,30.10
2023-02-23T02:40:22.808Z,31.98
2023-02-23T02:43:08.997Z,34.60
2023-02-23T02:45:48.673Z,25.33
2023-02-23T02:48:25.790Z,33.00
2023-02-23T02:50:57.513Z,23.65
2023-02-23T02:53:37.995Z,24.77
2023-02-23T02:56:08.155Z,31.15
2023-02-23T02:58:39.135Z,30.80
2023-02-23T03:01:27.217Z,36.20
2023-02-23T03:04:19.189Z,30.48
2023-02-23T03:07:15.998Z,38.67
2023-02-23T03:10:14.476Z,38.20
2023-02-23T03:13:06.329Z,41.88
2023-02-23T03:16:03.410Z,39.85
2023-02-23T03:22:13.200Z,37.13
2023-02-23T03:28:13.802Z,49.40
2023-02-23T03:31:13.315Z,47.65
2023-02-23T03:40:20.548Z,57.50
2023-02-23T03:43:14.355Z,64.30
2023-02-23T03:46:04.855Z,58.95
2023-02-23T03:48:55.385Z,55.38
2023-02-23T03:51:43.532Z,55.53
2023-02-23T03:54:34.560Z,67.40
2023-02-23T03:57:27.994Z,62.45
2023-02-23T04:00:17.927Z,57.92
2023-02-23T04:03:07.331Z,56.97
2023-02-23T04:05:58.791Z,67.00
2023-02-23T04:08:52.632Z,55.03
2023-02-23T04:11:44.257Z,54.80
2023-02-23T04:14:19.467Z,59.30
2023-02-23T04:16:47.187Z,48.70
2023-02-23T04:19:15.827Z,50.40
2023-02-23T04:21:44.202Z,48.15
2023-02-23T04:24:13.285Z,52.35
2023-02-23T04:26:41.551Z,46.42
2023-02-23T04:29:09.878Z,56.08
2023-02-23T04:31:41.778Z,48.97
2023-02-23T04:34:10.165Z,45.47
2023-02-23T04:36:38.417Z,43.17
2023-02-23T04:39:06.685Z,49.20
2023-02-23T04:41:35.065Z,46.92
2023-02-23T04:44:03.391Z,48.75
2023-02-23T04:46:32.470Z,50.28
2023-02-23T04:49:02.191Z,53.42
2023-02-23T04:51:32.440Z,55.90
2023-02-23T04:54:00.801Z,47.28
2023-02-23T04:56:29.045Z,48.10
2023-02-23T04:58:57.552Z,48.22
2023-02-23T05:01:25.871Z,42.80
2023-02-23T05:03:54.676Z,49.40
2023-02-23T05:06:24.317Z,50.55
2023-02-23T05:08:52.642Z,52.05
2023-02-23T05:11:21.110Z,54.80
2023-02-23T05:13:49.483Z,53.97
2023-02-23T05:16:18.248Z,52.90
2023-02-23T05:18:46.783Z,53.90
2023-02-23T05:21:15.182Z,57.60
2023-02-23T05:23:45.245Z,51.33
2023-02-23T05:26:14.712Z,51.00
2023-02-23T05:28:44.078Z,48.78
2023-02-23T05:31:13.294Z,51.83
2023-02-23T05:33:43.369Z,53.58
2023-02-23T05:36:13.022Z,47.97
2023-02-23T05:38:41.924Z,47.28
2023-02-23T05:41:13.554Z,45.40
2023-02-23T05:43:42.218Z,51.05
2023-02-23T05:46:11.178Z,51.50
2023-02-23T05:48:39.796Z,56.85
2023-02-23T05:51:10.258Z,55.63
2023-02-23T05:53:39.051Z,55.00
2023-02-23T05:56:09.650Z,62.10
2023-02-23T05:58:39.586Z,47.67
2023-02-23T06:01:08.705Z,50.75
2023-02-23T06:03:37.735Z,45.45
2023-02-23T06:06:06.541Z,55.35
2023-02-23T06:08:34.807Z,45.17
2023-02-23T06:11:03.952Z,52.00
2023-02-23T06:13:32.369Z,54.45
2023-02-23T06:16:02.359Z,52.95
2023-02-23T06:18:31.385Z,42.67
2023-02-23T06:21:02.276Z,44.08
2023-02-23T06:23:31.033Z,52.03
2023-02-23T06:25:59.752Z,51.70
2023-02-23T06:28:28.260Z,48.65
2023-02-23T06:30:57.851Z,49.50
2023-02-23T06:33:27.976Z,50.70
2023-02-23T06:35:56.358Z,48.03
2023-02-23T06:38:25.076Z,49.20
2023-02-23T06:40:53.341Z,52.92
2023-02-23T06:43:23.348Z,50.80
2023-02-23T06:45:51.967Z,47.55
2023-02-23T06:48:20.235Z,54.08
2023-02-23T06:50:49.999Z,45.70
2023-02-23T06:53:18.442Z,45.70
2023-02-23T06:55:46.684Z,49.85
2023-02-23T06:58:15.116Z,47.38
2023-02-23T07:00:46.690Z,42.42
2023-02-23T07:03:15.157Z,44.65
2023-02-23T07:05:43.587Z,38.08
2023-02-23T07:08:13.465Z,42.85
2023-02-23T07:10:41.928Z,36.90
2023-02-23T07:13:10.204Z,34.50
2023-02-23T07:15:39.309Z,35.38
2023-02-23T07:18:07.919Z,37.85
2023-02-23T07:20:36.659Z,31.80
2023-02-23T07:23:07.959Z,31.90
2023-02-23T07:25:38.027Z,36.08
2023-02-23T07:28:06.685Z,35.42
2023-02-23T07:30:35.008Z,32.88
2023-02-23T07:33:03.639Z,34.30
2023-02-23T07:35:32.055Z,32.17
2023-02-23T07:38:00.321Z,30.60
2023-02-23T07:40:28.706Z,31.02
2023-02-23T07:42:58.582Z,31.40
2023-02-23T07:45:26.854Z,29.15
2023-02-23T07:47:55.425Z,42.55
2023-02-23T07:50:23.677Z,27.02
2023-02-23T07:52:52.667Z,28.88
2023-02-23T07:55:21.074Z,32.72
2023-02-23T07:57:49.390Z,34.28
2023-02-23T08:00:20.086Z,30.05
2023-02-23T08:02:48.337Z,26.80
2023-02-23T08:05:16.753Z,26.65
2023-02-23T08:07:45.731Z,26.13
2023-02-23T08:10:14.348Z,25.85
2023-02-23T08:12:42.697Z,29.92
2023-02-23T08:15:11.812Z,22.95
2023-02-23T08:17:42.047Z,35.97
2023-02-23T08:20:12.098Z,23.20
2023-02-23T08:22:49.274Z,40.55
2023-02-23T08:25:18.948Z,37.13
2023-02-23T08:27:47.851Z,25.33
2023-02-23T08:30:17.023Z,27.67
2023-02-23T08:32:47.116Z,28.33
2023-02-23T08:35:16.033Z,22.55
2023-02-23T08:37:45.459Z,26.60
2023-02-23T08:40:15.769Z,23.92
2023-02-23T08:42:44.080Z,23.95
2023-02-23T08:45:13.573Z,26.33
2023-02-23T08:47:41.908Z,23.05
2023-02-23T08:50:13.276Z,23.02
2023-02-23T08:52:42.536Z,21.25
2023-02-23T08:55:12.069Z,25.70
2023-02-23T08:57:40.408Z,23.15
2023-02-23T09:00:16.915Z,27.45
2023-02-23T09:02:48.346Z,28.17
2023-02-23T09:05:18.782Z,31.10
2023-02-23T09:07:49.734Z,27.48
2023-02-23T09:10:20.822Z,31.27
2023-02-23T09:12:49.039Z,25.65
2023-02-23T09:15:17.299Z,24.42
2023-02-23T09:17:45.504Z,28.92
2023-02-23T09:20:16.023Z,22.77
2023-02-23T09:22:48.640Z,22.40
2023-02-23T09:25:18.298Z,20.38
2023-02-23T09:27:46.584Z,23.65
2023-02-23T09:30:17.749Z,29.40
2023-02-23T09:32:46.481Z,20.23
2023-02-23T09:35:18.023Z,22.50
2023-02-23T09:37:49.205Z,22.92
2023-02-23T09:40:19.165Z,24.30
2023-02-23T09:43:00.277Z,24.23
2023-02-23T09:45:40.322Z,20.17
2023-02-23T09:48:16.835Z,20.70
2023-02-23T09:50:49.203Z,23.38
2023-02-23T09:53:33.969Z,25.58
2023-02-23T09:56:08.238Z,22.75
2023-02-23T09:58:37.148Z,21.48
2023-02-23T10:01:41.056Z,26.45
2023-02-23T10:04:17.028Z,17.67
2023-02-23T10:06:51.282Z,23.42
2023-02-23T10:09:28.960Z,22.35
2023-02-23T10:12:05.162Z,20.98
2023-02-23T10:14:50.656Z,19.65
2023-02-23T10:17:30.382Z,20.05
2023-02-23T10:20:04.565Z,24.58
2023-02-23T10:22:35.947Z,20.50
2023-02-23T10:25:11.513Z,28.05
2023-02-23T10:27:43.137Z,19.80
2023-02-23T10:30:20.654Z,20.42
2023-02-23T10:32:55.221Z,20.63
2023-02-23T10:35:24.707Z,27.42
2023-02-23T10:37:54.263Z,18.55
2023-02-23T10:40:26.400Z,20.73
2023-02-23T10:42:56.390Z,21.50
2023-02-23T10:45:27.428Z,18.88
2023-02-23T10:47:59.223Z,21.85
2023-02-23T10:50:29.046Z,19.05
2023-02-23T10:53:02.228Z,23.05
2023-02-23T10:55:34.176Z,21.13
2023-02-23T10:58:10.948Z,21.85
2023-02-23T11:00:41.316Z,20.52
2023-02-23T11:03:20.234Z,30.83
2023-02-23T11:05:53.204Z,28.40
2023-02-23T11:08:25.072Z,30.15
2023-02-23T11:11:03.467Z,25.83
2023-02-23T11:13:39.906Z,22.85
2023-02-23T11:16:13.077Z,27.42
2023-02-23T11:18:43.686Z,22.83
2023-02-23T11:21:14.700Z,20.55
2023-02-23T11:23:46.045Z,17.90
2023-02-23T11:26:39.919Z,15.65
2023-02-23T11:29:17.835Z,15.85
2023-02-23T11:31:51.478Z,20.50
2023-02-23T11:34:29.834Z,17.75
2023-02-23T11:37:05.564Z,17.23
2023-02-23T11:39:34.422Z,21.25
2023-02-23T11:42:22.442Z,15.98
2023-02-23T11:45:02.667Z,20.40
2023-02-23T11:47:32.766Z,20.25
2023-02-23T11:50:02.176Z,24.77
2023-02-23T11:52:31.330Z,19.98
2023-02-23T11:55:01.869Z,27.48
2023-02-23T11:57:34.210Z,22.75
2023-02-23T12:00:11.084Z,22.77
2023-02-23T12:02:50.560Z,31.48
2023-02-23T12:05:22.273Z,18.88
2023-02-23T12:07:58.452Z,19.70
2023-02-23T12:10:30.728Z,20.35
2023-02-23T12:13:07.465Z,26.52
2023-02-23T12:15:45.252Z,25.08
2023-02-23T12:18:28.046Z,23.15
2023-02-23T12:20:59.189Z,23.45
2023-02-23T12:23:33.378Z,28.55
2023-02-23T12:26:06.469Z,18.65
2023-02-23T12:28:39.042Z,16.27
2023-02-23T12:31:20.976Z,21.08
2023-02-23T12:33:54.871Z,14.82
2023-02-23T12:36:30.046Z,23.48
2023-02-23T12:39:04.854Z,21.10
2023-02-23T12:41:40.522Z,16.65
2023-02-23T12:44:21.522Z,18.70
2023-02-23T12:46:54.649Z,23.92
2023-02-23T12:49:31.576Z,17.00
2023-02-23T12:52:08.673Z,22.95
2023-02-23T12:54:37.758Z,21.85
2023-02-23T12:57:19.541Z,18.88
2023-02-23T13:00:30.835Z,19.60
2023-02-23T13:03:30.515Z,18.15
2023-02-23T13:06:07.380Z,21.83
2023-02-23T13:08:52.933Z,25.25
2023-02-23T13:11:32.124Z,36.22
2023-02-23T13:14:05.879Z,30.85
2023-02-23T13:16:40.790Z,28.17
2023-02-23T13:19:18.758Z,16.75
2023-02-23T13:21:54.445Z,23.90
2023-02-23T13:24:25.733Z,16.33
2023-02-23T13:27:00.879Z,30.10
2023-02-23T13:29:35.628Z,16.30
2023-02-23T13:32:07.430Z,17.05
2023-02-23T13:34:40.668Z,29.05
2023-02-23T13:37:12.734Z,17.88
2023-02-23T13:39:48.787Z,19.85
2023-02-23T13:42:28.682Z,22.17
2023-02-23T13:45:13.114Z,15.80
2023-02-23T13:47:49.113Z,17.45
2023-02-23T13:50:23.592Z,18.90
2023-02-23T13:52:55.731Z,17.15
2023-02-23T13:55:51.338Z,17.88
2023-02-23T13:58:26.946Z,20.40
2023-02-23T14:01:05.542Z,26.98
2023-02-23T14:03:42.291Z,17.70
2023-02-23T14:06:18.983Z,17.25
2023-02-23T14:08:53.666Z,22.50
2023-02-23T14:11:44.139Z,20.13
2023-02-23T14:14:17.088Z,22.15
2023-02-23T14:17:05.746Z,18.70
2023-02-23T14:19:38.501Z,16.25
2023-02-23T14:22:10.032Z,16.88
2023-02-23T14:24:38.432Z,18.02
2023-02-23T14:27:38.558Z,16.88
2023-02-23T14:30:26.035Z,16.38
2023-02-23T14:32:54.954Z,16.83
2023-02-23T14:35:45.820Z,24.48
2023-02-23T14:38:25.666Z,20.33
2023-02-23T14:40:58.762Z,16.58
2023-02-23T14:43:43.911Z,17.80
2023-02-23T14:46:21.297Z,19.95
2023-02-23T14:49:02.236Z,21.58
2023-02-23T14:51:39.737Z,17.10
2023-02-23T14:54:22.837Z,19.05
2023-02-23T14:56:53.007Z,19.20
2023-02-23T14:59:22.924Z,19.35
2023-02-23T15:01:52.196Z,19.95
2023-02-23T15:04:23.843Z,22.92
2023-02-23T15:06:57.362Z,19.05
2023-02-23T15:09:33.442Z,16.20
2023-02-23T15:12:12.977Z,17.23
2023-02-23T15:14:42.369Z,17.70
2023-02-23T15:17:18.548Z,20.58
2023-02-23T15:19:49.029Z,17.98
2023-02-23T15:22:27.010Z,21.25
2023-02-23T15:24:58.642Z,21.48
2023-02-23T15:27:32.300Z,32.75
2023-02-23T15:30:04.245Z,22.60
2023-02-23T15:32:32.823Z,35.35
2023-02-23T15:35:04.339Z,20.60
2023-02-23T15:37:39.020Z,21.83
2023-02-23T15:40:11.632Z,21.63
2023-02-23T15:42:42.942Z,24.77
2023-02-23T15:45:20.072Z,20.88
2023-02-23T15:47:53.852Z,20.58
2023-02-23T15:50:36.276Z,16.75
2023-02-23T15:53:13.670Z,18.30
2023-02-23T15:55:44.912Z,28.73
2023-02-23T15:58:21.772Z,22.67
2023-02-23T16:01:04.910Z,27.20
2023-02-23T16:03:36.162Z,33.05
2023-02-23T16:06:06.637Z,30.40
2023-02-23T16:08:37.125Z,30.38
2023-02-23T16:11:13.656Z,26.40
2023-02-23T16:13:45.465Z,24.17
2023-02-23T16:16:19.446Z,23.30
2023-02-23T16:18:52.958Z,23.75
2023-02-23T16:21:25.055Z,24.48
2023-02-23T16:23:56.440Z,23.92
2023-02-23T16:26:29.022Z,28.67
2023-02-23T16:29:00.257Z,26.33
2023-02-23T16:31:43.678Z,25.70
2023-02-23T16:34:25.113Z,42.30
2023-02-23T16:36:59.086Z,27.45
2023-02-23T16:39:30.399Z,33.90
2023-02-23T16:42:00.280Z,31.13
2023-02-23T16:44:43.806Z,26.77
2023-02-23T16:47:28.162Z,30.23
2023-02-23T16:50:00.750Z,34.00
2023-02-23T16:52:30.773Z,26.95
2023-02-23T16:55:00.356Z,32.47
2023-02-23T16:57:31.878Z,36.50
2023-02-23T17:00:00.457Z,33.60
2023-02-23T17:02:28.940Z,32.20
2023-02-23T17:04:58.896Z,34.28
2023-02-23T17:07:27.181Z,39.70
2023-02-23T17:09:55.534Z,33.63
2023-02-23T17:12:25.136Z,30.65
2023-02-23T17:14:53.486Z,34.70
2023-02-23T17:17:21.982Z,29.88
2023-02-23T17:19:50.239Z,29.98
2023-02-23T17:22:18.743Z,32.97
2023-02-23T17:24:46.961Z,35.45
2023-02-23T17:27:15.185Z,35.15
2023-02-23T17:29:48.225Z,37.08
2023-02-23T17:32:20.404Z,47.90
2023-02-23T17:34:50.187Z,42.88
2023-02-23T17:37:20.202Z,45.15
2023-02-23T17:39:49.703Z,42.15
2023-02-23T17:42:18.707Z,48.33
2023-02-23T17:44:48.321Z,46.92
2023-02-23T17:47:16.629Z,52.95
2023-02-23T17:49:44.847Z,46.88
2023-02-23T17:52:13.121Z,45.72
2023-02-23T17:54:44.558Z,54.60
2023-02-23T17:57:16.500Z,63.22
2023-02-23T17:59:44.804Z,57.33
2023-02-23T18:02:18.187Z,55.47
2023-02-23T18:04:46.736Z,51.65
2023-02-23T18:07:15.488Z,57.13
2023-02-23T18:09:46.750Z,55.40
2023-02-23T18:12:15.079Z,56.80
2023-02-23T18:14:43.609Z,63.92
2023-02-23T18:17:11.817Z,58.08
2023-02-23T18:19:49.065Z,65.30
2023-02-23T18:22:17.276Z,76.53
2023-02-23T18:24:45.981Z,68.47
2023-02-23T18:27:14.900Z,70.60
2023-02-23T18:29:43.211Z,99.25
2023-02-23T18:32:12.894Z,75.40
2023-02-23T18:34:42.874Z,68.43
2023-02-23T18:37:11.518Z,78.43
2023-02-23T18:39:41.049Z,83.82
2023-02-23T18:42:09.328Z,79.88
2023-02-23T18:44:37.753Z,80.20
2023-02-23T18:47:06.019Z,75.15
2023-02-23T18:49:34.314Z,62.45
2023-02-23T18:52:05.472Z,71.72
2023-02-23T18:54:33.730Z,78.90
2023-02-23T18:57:02.319Z,77.85
2023-02-23T18:59:30.695Z,91.93
2023-02-23T19:02:02.309Z,81.65
2023-02-23T19:04:36.734Z,78.72
2023-02-23T19:07:06.777Z,85.72
2023-02-23T19:09:39.655Z,85.70
2023-02-23T19:12:11.841Z,85.43
2023-02-23T19:14:49.360Z,85.60
2023-02-23T19:17:18.257Z,76.50
2023-02-23T19:19:46.497Z,82.10
2023-02-23T19:22:16.135Z,86.75
2023-02-23T19:24:44.380Z,88.75
2023-02-23T19:27:12.920Z,99.38
2023-02-23T19:29:44.238Z,95.05
2023-02-23T19:32:13.691Z,97.43
2023-02-23T19:34:41.988Z,93.63
2023-02-23T19:37:10.446Z,91.45
2023-02-23T19:39:40.356Z,94.50
2023-02-23T19:42:09.176Z,84.45
2023-02-23T19:44:37.619Z,89.97
2023-02-23T19:47:06.140Z,82.72
2023-02-23T19:49:34.441Z,92.75
2023-02-23T19:52:02.865Z,91.63
2023-02-23T19:54:34.141Z,98.72
2023-02-23T19:57:04.277Z,103.40
2023-02-23T19:59:32.530Z,99.80
2023-02-23T20:02:00.887Z,91.60
2023-02-23T20:04:29.649Z,116.57
2023-02-23T20:06:57.951Z,109.97
2023-02-23T20:09:26.202Z,107.13
2023-02-23T20:11:56.700Z,103.05
2023-02-23T20:14:26.945Z,107.75
2023-02-23T20:16:55.295Z,84.57
2023-02-23T20:19:24.488Z,95.28
2023-02-23T20:21:52.933Z,94.07
2023-02-23T20:24:22.370Z,92.30
2023-02-23T20:26:52.492Z,93.68
2023-02-23T20:29:28.107Z,100.57
2023-02-23T20:32:03.643Z,93.15
2023-02-23T20:34:32.133Z,113.20
2023-02-23T20:37:00.465Z,102.85
2023-02-23T20:39:28.813Z,97.20
2023-02-23T20:41:57.156Z,100.15
2023-02-23T20:44:29.169Z,100.35
2023-02-23T20:47:00.751Z,104.55
2023-02-23T20:49:29.927Z,100.47
2023-02-23T20:51:58.195Z,114.43
2023-02-23T20:54:27.673Z,103.32
2023-02-23T20:57:07.611Z,106.75
2023-02-23T20:59:37.952Z,103.70
2023-02-23T21:02:08.985Z,107.05
2023-02-23T21:04:38.962Z,116.68
2023-02-23T21:07:07.264Z,102.35
2023-02-23T21:09:42.033Z,108.03
2023-02-23T21:12:11.196Z,111.55
2023-02-23T21:14:41.091Z,117.60
2023-02-23T21:17:09.900Z,119.30
2023-02-23T21:19:39.047Z,117.93
2023-02-23T21:22:07.449Z,111.65
2023-02-23T21:24:41.056Z,116.18
2023-02-23T21:27:12.799Z,111.07
2023-02-23T21:29:43.711Z,103.57
2023-02-23T21:32:14.942Z,131.23
2023-02-23T21:34:43.850Z,114.43
2023-02-23T21:37:12.787Z,103.57
2023-02-23T21:39:41.416Z,123.72
2023-02-23T21:42:09.731Z,103.90
2023-02-23T21:44:38.065Z,101.68
2023-02-23T21:47:10.521Z,121.60
2023-02-23T21:49:39.726Z,113.20
2023-02-23T21:52:08.492Z,106.35
2023-02-23T21:54:37.082Z,110.85
2023-02-23T21:57:05.530Z,118.13
2023-02-23T21:59:36.218Z,113.07
2023-02-23T22:02:04.889Z,116.72
2023-02-23T22:04:36.282Z,107.78
2023-02-23T22:07:05.805Z,117.07
2023-02-23T22:09:34.239Z,113.95
2023-02-23T22:12:02.691Z,115.68
2023-02-23T22:14:31.118Z,115.47
2023-02-23T22:16:59.408Z,115.40
2023-02-23T22:19:27.985Z,105.70
2023-02-23T22:21:59.188Z,113.65
2023-02-23T22:24:27.500Z,109.05
2023-02-23T22:26:55.908Z,103.93
2023-02-23T22:29:25.705Z,96.63
2023-02-23T22:31:54.253Z,104.13
2023-02-23T22:34:22.711Z,112.63
2023-02-23T22:36:51.428Z,114.63
2023-02-23T22:39:21.511Z,95.47
2023-02-23T22:41:50.126Z,100.95
2023-02-23T22:44:21.465Z,97.93
2023-02-23T22:46:50.326Z,88.43
2023-02-23T22:49:20.046Z,108.15
2023-02-23T22:51:50.471Z,96.85
2023-02-23T22:54:23.822Z,86.05
2023-02-23T22:56:52.175Z,98.20
2023-02-23T22:59:20.691Z,116.78
2023-02-23T23:01:53.122Z,105.20
2023-02-23T23:04:22.402Z,105.15
2023-02-23T23:06:51.118Z,97.80
2023-02-23T23:09:21.503Z,89.82
2023-02-23T23:11:51.309Z,85.78
2023-02-23T23:14:20.445Z,91.28
2023-02-23T23:16:52.748Z,97.82
2023-02-23T23:19:24.219Z,85.00
2023-02-23T23:21:56.188Z,89.43
2023-02-23T23:24:26.612Z,79.68
2023-02-23T23:26:59.508Z,89.05
2023-02-23T23:29:29.879Z,82.75
2023-02-23T23:31:58.236Z,79.45
2023-02-23T23:34:26.620Z,73.50
2023-02-23T23:36:55.488Z,67.72
2023-02-23T23:39:27.059Z,79.78
2023-02-23T23:41:58.561Z,71.90
2023-02-23T23:44:29.588Z,66.50
2023-02-23T23:46:58.657Z,66.30
2023-02-23T23:49:27.000Z,72.97
2023-02-23T23:51:57.233Z,78.00
2023-02-23T23:54:28.718Z,93.03
2023-02-23T23:56:57.249Z,70.38
2023-02-23T23:59:27.469Z,70.45
